Barnet, United Kingdom
Current Conditions -  °F | °C
As of 3:27 PM on Saturday 22 Nov 2014 (Local Time) from EGWU Reporting Station
Haze Haze  
Wind Chill: 57°   Ceiling: 5000
Heat Index: 57°   Visibility: 4mi
Dew Point: 55°   Wind: 5mph
Humidity: 94%   Direction: 200°SSW
Pressure: 29.91"   Gusts: NA
Location:  51.65°N, 0.2°W
Report Text: EGWU 221527Z 20004KT 6000 BR FEW007 SCT014 BKN050 14/13 Q1013 GRN TEMPO 8000 GRN
Loading
Personal Weather Stations






























Interactive Weather Map New forecast layout! Learn more

10-Day Weather Forecast

Advertisements
Track Severe Weather on mobile